Aérodrome :
LOGIN :

S'inscrire | Disclaimer

   EN    FR    IT 

 










Légende :    VFR   VFR Marginal   IFR   IFR Intensif   IFR Très Intensif
Visi : 
Plafond : 
>= 8 km
>= 3000ft
5 à 8 km
1000 à 3000 ft
1500m à 5 km
500 à 1000 ft
800 à 1500m
200 à 500 ft
< 800m
< 200 ft
Symboles :   Orages  Brouillard  Fortes neiges  Fortes précipitations  Vent > 20 kt
SIGMETs :   Divers  Orages  Givrage  Turbulence  Onde Orograph.  Cendres Volcan.






- Altitude de l'aérodrome : 1487 ft
- Code IATA : MUC


EDDM - München Franz Josef Strauss

DERNIER METAR :
  • 160220Z 29005KT 9000 -SN SCT015 BKN045 M02/M04 Q1025 R26L/690295 TEMPO 2000 -SN BKN010

METARs EXPIRÉS :
  • 160150Z 29006KT 9000 -SN SCT013 BKN025 M02/M04 Q1025 R26L/690295 TEMPO 2000 -SN BKN010
  • 160120Z 27006KT 250V310 9999 -SN SCT015 BKN025 M02/M04 Q1025 R26L/690295 TEMPO 2000 -SN BKN010
  • 160050Z 28006KT 9999 SCT030 M02/M04 Q1025 R26L/690295 NOSIG
  • 160020Z 27005KT 9999 SCT030 M02/M04 Q1024 R26L/690295 NOSIG
  • 152350Z 27005KT 9999 FEW025 M02/M04 Q1024 R26L/690295 NOSIG
  • 152320Z 28005KT 9999 FEW025 BKN047 M02/M04 Q1024 R26L/690295 NOSIG

TAF TAF EDDM
Valide du 16 à 00h jusqu'au 17 à 06h UTC


152300Z 1600/1706 26007KT 9999 FEW025 BKN045
TEMPO 1600/1614 4500 -SN BKN012
BECMG 1617/1619 VRB02KT
TEMPO 1701/1706 4000 -SN BKN012
PROB30
TEMPO 1703/1706 1200 SN BKN008



MET'MAP, la Météo Aéronautique d'un coup d'oeil ! - Copyright ORBIFLY Décembre 2007 - Disclaimer

ORBIFLY MET'MAP TEAM :

Programmation & Développement : Alexandra Zaïnal
Sur une idée originale de : Baudouin d'Aumeries
Assistance à la programmation : Marc-Olivier Méhu
Soutien technique & logistique : Manuel Goepfert

Contact : metmap@orbifly.com




SOURCES & CREDITS :

   NOAA